createdAt,value
2023-03-31T00:02:13.817Z,2.05
2023-03-31T00:04:45.734Z,1.83
2023-03-31T00:07:16.612Z,1.48
2023-03-31T00:09:48.037Z,1.73
2023-03-31T00:12:16.414Z,1.90
2023-03-31T00:14:43.658Z,1.52
2023-03-31T00:17:11.758Z,1.90
2023-03-31T00:19:39.954Z,2.00
2023-03-31T00:22:08.219Z,2.00
2023-03-31T00:24:35.887Z,1.77
2023-03-31T00:27:04.030Z,2.40
2023-03-31T00:29:33.348Z,2.25
2023-03-31T00:32:00.724Z,2.28
2023-03-31T00:34:28.324Z,1.92
2023-03-31T00:36:57.904Z,0.90
2023-03-31T00:39:25.432Z,1.83
2023-03-31T00:41:52.566Z,1.80
2023-03-31T00:44:22.514Z,2.03
2023-03-31T00:46:53.138Z,2.55
2023-03-31T00:49:32.860Z,2.33
2023-03-31T00:52:10.664Z,2.38
2023-03-31T00:54:38.339Z,2.38
2023-03-31T00:57:06.534Z,1.65
2023-03-31T00:59:37.796Z,2.85
2023-03-31T01:02:05.114Z,2.45
2023-03-31T01:04:35.364Z,2.75
2023-03-31T01:07:16.665Z,2.28
2023-03-31T01:09:47.072Z,2.78
2023-03-31T01:12:16.008Z,2.55
2023-03-31T01:14:44.053Z,3.50
2023-03-31T01:17:19.040Z,2.42
2023-03-31T01:20:12.242Z,4.10
2023-03-31T01:23:10.386Z,3.78
2023-03-31T01:25:58.694Z,3.47
2023-03-31T01:28:32.007Z,3.97
2023-03-31T01:33:57.288Z,1.92
2023-03-31T01:36:46.322Z,2.00
2023-03-31T01:39:46.718Z,3.03
2023-03-31T01:42:18.402Z,2.90
2023-03-31T01:45:12.110Z,2.22
2023-03-31T01:47:47.120Z,2.40
2023-03-31T01:50:20.515Z,2.10
2023-03-31T01:53:03.684Z,2.40
2023-03-31T01:55:39.127Z,2.67
2023-03-31T01:58:16.669Z,3.28
2023-03-31T02:01:06.245Z,3.53
2023-03-31T02:03:36.381Z,3.40
2023-03-31T02:06:09.515Z,2.83
2023-03-31T02:08:40.177Z,2.13
2023-03-31T02:11:07.606Z,3.58
2023-03-31T02:13:35.199Z,3.47
2023-03-31T02:16:07.188Z,3.40
2023-03-31T02:18:38.012Z,2.97
2023-03-31T02:21:05.839Z,3.03
2023-03-31T02:23:32.953Z,2.40
2023-03-31T02:26:07.133Z,4.30
2023-03-31T02:28:34.479Z,2.75
2023-03-31T02:31:17.185Z,2.40
2023-03-31T02:33:44.289Z,2.38
2023-03-31T02:36:11.506Z,6.55
2023-03-31T02:38:53.951Z,3.28
2023-03-31T02:41:21.671Z,3.58
2023-03-31T02:43:50.160Z,2.63
2023-03-31T02:46:17.682Z,2.55
2023-03-31T02:48:48.038Z,3.63
2023-03-31T02:51:34.219Z,3.10
2023-03-31T02:54:11.192Z,3.40
2023-03-31T02:57:13.020Z,3.10
2023-03-31T02:59:43.578Z,2.90
2023-03-31T03:02:29.973Z,3.38
2023-03-31T03:05:34.931Z,3.17
2023-03-31T03:08:58.328Z,2.55
2023-03-31T03:11:32.861Z,2.00
2023-03-31T03:14:20.393Z,2.30
2023-03-31T03:16:50.155Z,2.05
2023-03-31T03:19:21.246Z,2.08
2023-03-31T03:21:48.556Z,2.05
2023-03-31T03:24:16.731Z,1.73
2023-03-31T03:26:44.903Z,1.92
2023-03-31T03:29:15.396Z,1.83
2023-03-31T03:31:43.318Z,1.58
2023-03-31T03:34:10.630Z,2.38
2023-03-31T03:36:38.234Z,1.92
2023-03-31T03:39:07.263Z,2.10
2023-03-31T03:41:34.432Z,2.25
2023-03-31T03:44:01.811Z,1.20
2023-03-31T03:46:29.413Z,1.63
2023-03-31T03:48:56.613Z,2.38
2023-03-31T03:51:23.935Z,2.15
2023-03-31T03:53:51.236Z,1.55
2023-03-31T03:56:18.691Z,2.13
2023-03-31T03:58:46.261Z,1.90
2023-03-31T04:01:14.584Z,2.00
2023-03-31T04:03:41.927Z,2.17
2023-03-31T04:06:09.308Z,1.90
2023-03-31T04:08:39.987Z,2.05
2023-03-31T04:11:17.353Z,2.88
2023-03-31T04:13:46.262Z,1.45
2023-03-31T04:16:13.872Z,2.88
2023-03-31T04:18:43.867Z,2.33
2023-03-31T04:21:14.975Z,2.15
2023-03-31T04:23:49.239Z,1.75
2023-03-31T04:26:18.239Z,2.75
2023-03-31T04:28:50.339Z,2.42
2023-03-31T04:31:25.012Z,2.17
2023-03-31T04:33:53.550Z,1.30
2023-03-31T04:36:21.448Z,2.17
2023-03-31T04:38:55.048Z,1.75
2023-03-31T04:41:22.894Z,2.00
2023-03-31T04:43:50.543Z,2.00
2023-03-31T04:46:18.032Z,2.47
2023-03-31T04:48:45.518Z,1.60
2023-03-31T04:51:15.162Z,1.58
2023-03-31T04:53:42.285Z,1.70
2023-03-31T04:56:10.077Z,3.83
2023-03-31T04:58:37.636Z,2.80
2023-03-31T05:01:08.136Z,0.88
2023-03-31T05:03:36.081Z,0.80
2023-03-31T05:06:03.345Z,1.08
2023-03-31T05:08:30.449Z,0.95
2023-03-31T05:10:58.139Z,1.13
2023-03-31T05:13:25.308Z,1.00
2023-03-31T05:15:52.450Z,1.10
2023-03-31T05:18:20.038Z,0.73
2023-03-31T05:20:47.147Z,1.10
2023-03-31T05:23:14.573Z,1.17
2023-03-31T05:25:42.345Z,1.23
2023-03-31T05:28:09.976Z,1.05
2023-03-31T05:30:37.570Z,1.40
2023-03-31T05:33:05.043Z,0.90
2023-03-31T05:35:32.612Z,1.30
2023-03-31T05:38:00.266Z,1.65
2023-03-31T05:40:27.489Z,1.52
2023-03-31T05:42:54.843Z,1.67
2023-03-31T05:45:22.354Z,2.17
2023-03-31T05:47:49.789Z,1.50
2023-03-31T05:50:17.233Z,1.27
2023-03-31T05:52:44.353Z,1.00
2023-03-31T05:55:12.998Z,1.35
2023-03-31T05:57:40.307Z,1.45
2023-03-31T06:00:10.727Z,1.05
2023-03-31T06:02:38.028Z,1.35
2023-03-31T06:05:06.053Z,1.45
2023-03-31T06:07:33.717Z,1.10
2023-03-31T06:10:00.865Z,1.45
2023-03-31T06:12:28.113Z,1.00
2023-03-31T06:14:55.577Z,1.02
2023-03-31T06:17:22.793Z,1.40
2023-03-31T06:19:50.244Z,1.00
2023-03-31T06:22:17.245Z,1.02
2023-03-31T06:24:44.354Z,1.13
2023-03-31T06:27:11.435Z,2.30
2023-03-31T06:29:38.862Z,1.00
2023-03-31T06:32:06.773Z,0.68
2023-03-31T06:34:34.240Z,0.80
2023-03-31T06:37:01.604Z,1.98
2023-03-31T06:39:29.264Z,1.13
2023-03-31T06:41:56.786Z,2.10
2023-03-31T06:44:28.196Z,1.40
2023-03-31T06:46:55.443Z,1.50
2023-03-31T06:49:22.589Z,1.67
2023-03-31T06:51:50.712Z,0.80
2023-03-31T06:54:18.144Z,0.57
2023-03-31T06:56:45.651Z,0.90
2023-03-31T06:59:13.143Z,1.30
2023-03-31T07:01:42.719Z,0.90
2023-03-31T07:04:09.908Z,0.60
2023-03-31T07:06:37.344Z,0.60
2023-03-31T07:09:04.512Z,0.70
2023-03-31T07:11:31.853Z,0.90
2023-03-31T07:13:59.195Z,0.95
2023-03-31T07:16:26.634Z,0.70
2023-03-31T07:18:59.165Z,1.08
2023-03-31T07:21:26.923Z,0.65
2023-03-31T07:23:54.582Z,0.43
2023-03-31T07:26:21.986Z,0.85
2023-03-31T07:28:49.101Z,1.08
2023-03-31T07:31:16.590Z,0.90
2023-03-31T07:33:44.156Z,0.93
2023-03-31T07:36:13.858Z,0.98
2023-03-31T07:38:42.602Z,1.13
2023-03-31T07:41:13.752Z,0.60
2023-03-31T07:43:41.137Z,1.00
2023-03-31T07:46:14.747Z,1.30
2023-03-31T07:48:43.620Z,1.77
2023-03-31T07:51:10.654Z,1.00
2023-03-31T07:53:37.819Z,1.02
2023-03-31T07:56:05.602Z,1.00
2023-03-31T07:58:33.483Z,0.88
2023-03-31T08:01:00.911Z,1.00
2023-03-31T08:03:28.868Z,1.90
2023-03-31T08:05:56.386Z,3.80
2023-03-31T08:08:24.120Z,3.28
2023-03-31T08:10:51.391Z,3.08
2023-03-31T08:13:18.725Z,2.72
2023-03-31T08:15:46.435Z,3.03
2023-03-31T08:18:13.585Z,2.90
2023-03-31T08:20:40.829Z,2.42
2023-03-31T08:23:11.075Z,2.40
2023-03-31T08:25:38.777Z,2.65
2023-03-31T08:28:06.653Z,1.80
2023-03-31T08:30:34.155Z,3.45
2023-03-31T08:33:01.714Z,2.28
2023-03-31T08:35:28.897Z,1.33
2023-03-31T08:37:56.222Z,1.38
2023-03-31T08:40:24.595Z,1.45
2023-03-31T08:43:05.192Z,2.10
2023-03-31T08:45:50.760Z,2.75
2023-03-31T08:48:34.789Z,1.27
2023-03-31T08:51:08.474Z,1.58
2023-03-31T08:53:39.314Z,1.40
2023-03-31T08:56:08.564Z,1.80
2023-03-31T08:58:40.304Z,0.90
2023-03-31T09:01:47.738Z,0.70
2023-03-31T09:04:27.138Z,1.30
2023-03-31T09:07:11.903Z,0.80
2023-03-31T09:10:13.268Z,1.52
2023-03-31T09:12:46.826Z,1.20
2023-03-31T09:15:46.271Z,0.52
2023-03-31T09:18:35.959Z,0.90
2023-03-31T09:21:26.541Z,0.88
2023-03-31T09:24:01.721Z,1.00
2023-03-31T09:26:45.590Z,1.10
2023-03-31T09:29:18.394Z,0.98
2023-03-31T09:31:46.576Z,1.55
2023-03-31T09:34:16.620Z,1.15
2023-03-31T09:36:44.129Z,1.98
2023-03-31T09:39:15.089Z,2.17
2023-03-31T09:41:45.599Z,1.63
2023-03-31T09:44:25.049Z,2.35
2023-03-31T09:46:53.292Z,1.50
2023-03-31T09:49:26.524Z,1.30
2023-03-31T09:52:09.597Z,1.10
2023-03-31T09:54:56.425Z,1.40
2023-03-31T09:57:31.257Z,1.65
2023-03-31T10:00:16.054Z,1.70
2023-03-31T10:02:50.300Z,1.75
2023-03-31T10:05:36.563Z,1.55
2023-03-31T10:08:27.732Z,1.35
2023-03-31T10:11:04.194Z,1.70
2023-03-31T10:13:59.685Z,1.88
2023-03-31T10:16:29.851Z,1.40
2023-03-31T10:19:19.029Z,3.08
2023-03-31T10:21:47.097Z,2.15
2023-03-31T10:24:18.532Z,1.50
2023-03-31T10:26:49.977Z,0.80
2023-03-31T10:29:22.195Z,1.00
2023-03-31T10:31:49.746Z,1.10
2023-03-31T10:34:17.304Z,0.75
2023-03-31T10:36:47.251Z,1.40
2023-03-31T10:39:16.900Z,1.30
2023-03-31T10:41:43.970Z,0.98
2023-03-31T10:44:35.196Z,1.08
2023-03-31T10:47:14.558Z,2.95
2023-03-31T10:49:43.181Z,3.13
2023-03-31T10:52:27.368Z,4.10
2023-03-31T10:54:59.019Z,3.08
2023-03-31T10:57:38.533Z,2.13
2023-03-31T11:00:30.869Z,2.17
2023-03-31T11:03:10.079Z,2.92
2023-03-31T11:05:47.343Z,2.88
2023-03-31T11:08:26.960Z,5.35
2023-03-31T11:11:39.323Z,9.68
2023-03-31T11:14:47.758Z,11.88
2023-03-31T11:17:49.222Z,6.63
2023-03-31T11:20:35.544Z,5.22
2023-03-31T11:23:15.354Z,5.40
2023-03-31T11:26:14.888Z,4.90
2023-03-31T11:29:01.359Z,4.10
2023-03-31T11:31:38.668Z,3.20
2023-03-31T11:34:40.060Z,4.28
2023-03-31T11:37:31.556Z,2.38
2023-03-31T11:40:29.287Z,0.70
2023-03-31T11:43:01.493Z,2.22
2023-03-31T11:45:40.239Z,2.00
2023-03-31T11:48:14.267Z,1.42
2023-03-31T11:50:41.602Z,0.93
2023-03-31T11:53:19.007Z,1.00
2023-03-31T11:55:47.561Z,0.82
2023-03-31T11:58:19.324Z,1.33
2023-03-31T12:01:01.177Z,0.65
2023-03-31T12:04:01.001Z,0.68
2023-03-31T12:06:34.169Z,0.88
2023-03-31T12:09:23.288Z,0.90
2023-03-31T12:11:57.676Z,1.00
2023-03-31T12:14:38.888Z,1.00
2023-03-31T12:17:14.233Z,0.80
2023-03-31T12:19:59.718Z,1.17
2023-03-31T12:22:26.876Z,1.33
2023-03-31T12:24:54.060Z,1.35
2023-03-31T12:27:24.293Z,0.60
2023-03-31T12:30:00.869Z,1.15
2023-03-31T12:32:36.785Z,0.70
2023-03-31T12:35:24.747Z,0.85
2023-03-31T12:38:42.817Z,0.90
2023-03-31T12:41:18.767Z,0.90
2023-03-31T12:44:10.938Z,0.60
2023-03-31T12:46:59.737Z,0.73
2023-03-31T12:49:42.082Z,0.68
2023-03-31T12:52:18.799Z,0.55
2023-03-31T12:55:10.761Z,0.55
2023-03-31T12:57:37.856Z,0.80
2023-03-31T13:00:12.348Z,1.00
2023-03-31T13:02:40.476Z,0.98
2023-03-31T13:05:47.280Z,1.00
2023-03-31T13:08:50.310Z,0.90
2023-03-31T13:11:22.606Z,0.75
2023-03-31T13:14:02.294Z,1.15
2023-03-31T13:16:30.416Z,0.98
2023-03-31T13:18:57.536Z,0.93
2023-03-31T13:21:25.569Z,0.68
2023-03-31T13:23:53.371Z,1.05
2023-03-31T13:26:36.745Z,1.00
2023-03-31T13:29:13.917Z,1.20
2023-03-31T13:32:02.941Z,0.88
2023-03-31T13:35:00.285Z,1.00
2023-03-31T13:38:04.287Z,0.80
2023-03-31T13:40:50.331Z,0.70
2023-03-31T13:43:36.040Z,0.75
2023-03-31T13:46:26.557Z,1.02
2023-03-31T13:49:01.105Z,0.90
2023-03-31T13:51:53.203Z,0.75
2023-03-31T13:55:13.557Z,1.20
2023-03-31T13:57:52.872Z,1.17
2023-03-31T14:00:41.954Z,0.88
2023-03-31T14:03:17.008Z,1.45
2023-03-31T14:05:53.791Z,1.00
2023-03-31T14:08:47.339Z,1.20
2023-03-31T14:11:24.728Z,1.73
2023-03-31T14:14:01.063Z,0.75
2023-03-31T14:16:28.471Z,0.90
2023-03-31T14:19:14.991Z,1.05
2023-03-31T14:22:06.294Z,1.23
2023-03-31T14:24:42.751Z,1.80
2023-03-31T14:27:40.865Z,2.35
2023-03-31T14:30:13.784Z,2.38
2023-03-31T14:32:48.208Z,1.63
2023-03-31T14:35:28.967Z,1.80
2023-03-31T14:37:56.343Z,1.17
2023-03-31T14:40:23.946Z,1.48
2023-03-31T14:42:51.494Z,1.02
2023-03-31T14:45:21.826Z,0.95
2023-03-31T14:48:00.016Z,1.00
2023-03-31T14:50:33.958Z,0.70
2023-03-31T14:53:02.368Z,0.82
2023-03-31T14:55:44.239Z,0.70
2023-03-31T14:58:37.447Z,0.95
2023-03-31T15:01:06.532Z,1.20
2023-03-31T15:03:35.040Z,0.55
2023-03-31T15:06:02.841Z,0.95
2023-03-31T15:08:30.667Z,0.80
2023-03-31T15:11:11.810Z,0.75
2023-03-31T15:14:00.538Z,0.73
2023-03-31T15:16:29.749Z,0.88
2023-03-31T15:18:57.764Z,0.95
2023-03-31T15:21:26.934Z,1.25
2023-03-31T15:23:57.522Z,0.60
2023-03-31T15:26:38.462Z,0.95
2023-03-31T15:31:45.071Z,1.05
2023-03-31T15:34:15.772Z,1.20
2023-03-31T15:36:43.439Z,1.02
2023-03-31T15:39:11.093Z,0.65
2023-03-31T15:41:38.210Z,1.40
2023-03-31T15:44:33.957Z,1.10
2023-03-31T15:47:22.030Z,1.10
2023-03-31T15:50:04.580Z,1.52
2023-03-31T15:52:35.917Z,0.90
2023-03-31T15:55:23.547Z,1.23
2023-03-31T15:57:52.990Z,1.08
2023-03-31T16:00:45.308Z,1.00
2023-03-31T16:03:38.323Z,1.70
2023-03-31T16:08:44.814Z,0.75
2023-03-31T16:11:27.926Z,0.93
2023-03-31T16:13:57.136Z,1.60
2023-03-31T16:16:25.180Z,0.70
2023-03-31T16:18:55.387Z,1.02
2023-03-31T16:21:28.930Z,1.20
2023-03-31T16:23:57.409Z,0.82
2023-03-31T16:26:25.957Z,0.77
2023-03-31T16:28:53.768Z,2.50
2023-03-31T16:31:35.660Z,1.30
2023-03-31T16:34:05.131Z,0.88
2023-03-31T16:36:32.572Z,0.73
2023-03-31T16:39:02.211Z,0.90
2023-03-31T16:41:29.813Z,0.60
2023-03-31T16:43:57.200Z,0.70
2023-03-31T16:46:25.212Z,0.80
2023-03-31T16:48:52.800Z,0.95
2023-03-31T16:51:20.508Z,0.50
2023-03-31T16:53:47.886Z,1.63
2023-03-31T16:56:15.410Z,0.50
2023-03-31T16:58:43.408Z,0.40
2023-03-31T17:01:11.240Z,0.73
2023-03-31T17:03:40.923Z,0.47
2023-03-31T17:06:11.088Z,0.35
2023-03-31T17:08:39.351Z,0.50
2023-03-31T17:11:11.750Z,0.65
2023-03-31T17:13:39.568Z,1.10
2023-03-31T17:18:55.548Z,0.90
2023-03-31T17:21:23.799Z,1.13
2023-03-31T17:23:50.867Z,1.27
2023-03-31T17:26:18.254Z,1.15
2023-03-31T17:28:45.862Z,0.80
2023-03-31T17:31:16.921Z,1.10
2023-03-31T17:33:44.525Z,0.50
2023-03-31T17:36:11.679Z,1.00
2023-03-31T17:38:39.908Z,1.10
2023-03-31T17:41:08.367Z,1.50
2023-03-31T17:43:35.565Z,0.60
2023-03-31T17:46:04.919Z,1.27
2023-03-31T17:48:34.095Z,0.80
2023-03-31T17:51:05.614Z,0.80
2023-03-31T17:53:33.483Z,0.70
2023-03-31T17:56:01.744Z,1.30
2023-03-31T17:58:28.869Z,0.50
2023-03-31T18:00:56.940Z,0.75
2023-03-31T18:03:24.549Z,0.70
2023-03-31T18:05:52.029Z,1.40
2023-03-31T18:08:19.084Z,1.13
2023-03-31T18:10:46.912Z,0.90
2023-03-31T18:13:14.350Z,1.65
2023-03-31T18:15:48.389Z,1.00
2023-03-31T18:18:15.805Z,0.85
2023-03-31T18:20:42.914Z,0.80
2023-03-31T18:23:10.222Z,0.65
2023-03-31T18:25:38.276Z,0.80
2023-03-31T18:28:05.975Z,0.55
2023-03-31T18:30:33.622Z,0.63
2023-03-31T18:33:01.453Z,0.20
2023-03-31T18:35:29.134Z,1.17
2023-03-31T18:37:56.810Z,1.40
2023-03-31T18:40:24.234Z,0.88
2023-03-31T18:42:51.742Z,1.50
2023-03-31T18:45:19.184Z,1.00
2023-03-31T18:47:46.757Z,1.33
2023-03-31T18:50:14.279Z,1.25
2023-03-31T18:52:41.472Z,1.10
2023-03-31T18:55:09.318Z,1.02
2023-03-31T18:57:36.428Z,1.08
2023-03-31T19:00:05.485Z,1.27
2023-03-31T19:02:33.207Z,0.88
2023-03-31T19:05:00.754Z,0.98
2023-03-31T19:07:28.442Z,0.85
2023-03-31T19:09:55.758Z,0.90
2023-03-31T19:12:23.570Z,1.50
2023-03-31T19:14:50.620Z,1.20
2023-03-31T19:17:19.755Z,1.40
2023-03-31T19:19:47.414Z,1.23
2023-03-31T19:22:15.429Z,1.50
2023-03-31T19:24:43.590Z,1.25
2023-03-31T19:27:12.341Z,1.17
2023-03-31T19:29:39.827Z,1.33
2023-03-31T19:32:07.771Z,1.13
2023-03-31T19:34:35.002Z,1.83
2023-03-31T19:37:03.581Z,1.27
2023-03-31T19:39:31.574Z,1.17
2023-03-31T19:41:58.742Z,1.17
2023-03-31T19:44:26.514Z,1.30
2023-03-31T19:46:54.134Z,1.30
2023-03-31T19:49:21.425Z,0.90
2023-03-31T19:51:48.597Z,0.82
2023-03-31T19:54:16.242Z,0.70
2023-03-31T19:56:44.496Z,1.00
2023-03-31T19:59:11.948Z,1.10
2023-03-31T20:01:39.485Z,0.70
2023-03-31T20:04:07.260Z,0.60
2023-03-31T20:06:35.562Z,0.80
2023-03-31T20:09:03.397Z,0.80
2023-03-31T20:11:31.907Z,0.70
2023-03-31T20:13:59.492Z,0.98
2023-03-31T20:16:27.941Z,0.35
2023-03-31T20:19:03.846Z,0.63
2023-03-31T20:21:33.372Z,0.55
2023-03-31T20:24:01.371Z,0.50
2023-03-31T20:26:30.102Z,0.40
2023-03-31T20:28:58.398Z,1.30
2023-03-31T20:31:27.693Z,0.60
2023-03-31T20:33:55.635Z,0.25
2023-03-31T20:36:28.914Z,0.73
2023-03-31T20:38:56.889Z,0.60
2023-03-31T20:41:28.887Z,0.93
2023-03-31T20:43:56.535Z,0.75
2023-03-31T20:46:24.780Z,0.60
2023-03-31T20:48:57.142Z,1.25
2023-03-31T20:51:31.158Z,0.80
2023-03-31T20:53:59.063Z,0.82
2023-03-31T20:56:31.472Z,0.93
2023-03-31T20:58:58.842Z,0.85
2023-03-31T21:01:27.531Z,0.68
2023-03-31T21:03:58.717Z,0.70
2023-03-31T21:06:27.017Z,0.80
2023-03-31T21:08:54.664Z,0.98
2023-03-31T21:11:24.830Z,0.98
2023-03-31T21:13:52.962Z,0.50
2023-03-31T21:16:20.600Z,0.63
2023-03-31T21:18:48.310Z,0.52
2023-03-31T21:21:18.788Z,0.50
2023-03-31T21:23:46.748Z,0.85
2023-03-31T21:26:15.834Z,0.30
2023-03-31T21:28:43.343Z,0.75
2023-03-31T21:31:15.569Z,0.50
2023-03-31T21:33:43.031Z,0.82
2023-03-31T21:36:18.692Z,0.88
2023-03-31T21:38:46.422Z,0.50
2023-03-31T21:41:18.637Z,0.50
2023-03-31T21:43:45.762Z,0.65
2023-03-31T21:46:16.940Z,0.93
2023-03-31T21:48:44.335Z,0.38
2023-03-31T21:51:11.720Z,1.15
2023-03-31T21:53:38.836Z,1.23
2023-03-31T21:56:06.169Z,0.77
2023-03-31T21:58:34.037Z,1.10
2023-03-31T22:01:03.627Z,0.90
2023-03-31T22:03:33.896Z,1.20
2023-03-31T22:06:06.626Z,1.20
2023-03-31T22:11:01.216Z,0.90
2023-03-31T22:13:28.627Z,0.98
2023-03-31T22:15:56.378Z,0.90
2023-03-31T22:18:23.743Z,1.00
2023-03-31T22:20:50.964Z,0.77
2023-03-31T22:23:20.252Z,1.23
2023-03-31T22:25:47.570Z,0.50
2023-03-31T22:28:15.869Z,1.05
2023-03-31T22:30:43.722Z,0.75
2023-03-31T22:33:11.121Z,1.30
2023-03-31T22:35:38.359Z,1.25
2023-03-31T22:38:06.602Z,0.93
2023-03-31T22:40:34.970Z,0.60
2023-03-31T22:43:02.410Z,0.75
2023-03-31T22:45:29.596Z,1.23
2023-03-31T22:47:57.119Z,0.98
2023-03-31T22:50:24.542Z,1.20
2023-03-31T22:52:52.102Z,1.00
2023-03-31T22:55:19.608Z,1.52
2023-03-31T22:57:46.982Z,0.85
2023-03-31T23:00:14.634Z,1.25
2023-03-31T23:02:41.906Z,1.10
2023-03-31T23:05:09.730Z,0.75
2023-03-31T23:07:37.970Z,1.10
2023-03-31T23:10:05.825Z,0.70
2023-03-31T23:12:33.597Z,1.38
2023-03-31T23:15:01.410Z,1.20
2023-03-31T23:17:29.020Z,1.00
2023-03-31T23:19:56.802Z,1.00
2023-03-31T23:22:25.504Z,0.80
2023-03-31T23:24:53.050Z,1.00
2023-03-31T23:27:20.901Z,0.35
2023-03-31T23:29:47.805Z,1.40
2023-03-31T23:32:15.599Z,0.82
2023-03-31T23:34:43.296Z,1.23
2023-03-31T23:37:11.821Z,0.80
2023-03-31T23:39:39.015Z,0.82
2023-03-31T23:42:07.288Z,0.93
2023-03-31T23:44:37.492Z,1.25
2023-03-31T23:47:05.646Z,1.25
2023-03-31T23:49:33.709Z,0.65
2023-03-31T23:52:01.114Z,0.80
2023-03-31T23:54:28.640Z,1.20
2023-03-31T23:56:56.049Z,1.35
2023-03-31T23:59:23.769Z,1.17
